Time;durP1;ratioP1;P1;durP2;ratioP2;P2;SDS_P1;SDS_P2;PMS_P1;PMS_P2;Temp;Humidity;BMP_temperature;BMP_pressure;BME280_temperature;BME280_humidity;BME280_pressure;Samples;Min_cycle;Max_cycle;Signal;HPM_P1;HPM_P2
2022/08/19 00:01:18;;;;;;;62.63;6.00;;;;;;;;;;5115532;28;20467;-67
2022/08/19 00:03:45;;;;;;;61.90;6.63;;;;;;;;;;5115467;28;20442;-67
2022/08/19 00:06:12;;;;;;;62.83;6.60;;;;;;;;;;5115174;28;20481;-67
2022/08/19 00:08:39;;;;;;;61.77;6.10;;;;;;;;;;5114753;28;20445;-67
2022/08/19 00:11:07;;;;;;;62.20;7.03;;;;;;;;;;5114963;28;20437;-67
2022/08/19 00:13:34;;;;;;;61.87;6.33;;;;;;;;;;5115333;28;20450;-67
2022/08/19 00:16:02;;;;;;;64.47;8.13;;;;;;;;;;5115259;28;20551;-67
2022/08/19 00:18:30;;;;;;;65.60;8.47;;;;;;;;;;5115352;28;20484;-67
2022/08/19 00:20:57;;;;;;;64.30;7.23;;;;;;;;;;5115030;28;20532;-67
2022/08/19 00:23:24;;;;;;;63.40;7.20;;;;;;;;;;5115465;28;20547;-67
2022/08/19 00:25:52;;;;;;;63.70;7.30;;;;;;;;;;5115322;28;20980;-67
2022/08/19 00:28:20;;;;;;;64.00;7.13;;;;;;;;;;5115045;28;20453;-67
2022/08/19 00:30:47;;;;;;;64.80;6.97;;;;;;;;;;5114617;28;20546;-67
2022/08/19 00:33:16;;;;;;;66.40;7.57;;;;;;;;;;5114656;28;20465;-67
2022/08/19 00:35:44;;;;;;;63.73;7.17;;;;;;;;;;5114756;28;20496;-67
2022/08/19 00:38:11;;;;;;;62.33;6.50;;;;;;;;;;5114986;28;20438;-68
2022/08/19 00:40:39;;;;;;;62.53;7.43;;;;;;;;;;5114180;28;20941;-67
2022/08/19 00:43:09;;;;;;;63.97;5.67;;;;;;;;;;5114512;28;20493;-67
2022/08/19 00:45:36;;;;;;;65.63;7.93;;;;;;;;;;5113953;28;20529;-67
2022/08/19 00:48:04;;;;;;;62.80;6.67;;;;;;;;;;5114346;28;20485;-67
2022/08/19 00:50:32;;;;;;;64.17;7.63;;;;;;;;;;5114177;28;20495;-67
2022/08/19 00:53:03;;;;;;;63.90;8.33;;;;;;;;;;5113967;28;20486;-67
2022/08/19 00:55:32;;;;;;;62.90;7.20;;;;;;;;;;5114342;28;20969;-66
2022/08/19 00:58:01;;;;;;;62.37;6.30;;;;;;;;;;5114059;28;20822;-67
2022/08/19 01:00:29;;;;;;;63.27;6.60;;;;;;;;;;5113950;28;20448;-67
2022/08/19 01:02:56;;;;;;;64.77;6.67;;;;;;;;;;5113812;28;20461;-67
2022/08/19 01:05:27;;;;;;;64.90;7.73;;;;;;;;;;5114040;28;20448;-67
2022/08/19 01:07:54;;;;;;;63.97;7.10;;;;;;;;;;5114304;28;20481;-67
2022/08/19 01:10:24;;;;;;;63.17;6.87;;;;;;;;;;5113539;28;20448;-67
2022/08/19 01:12:52;;;;;;;66.53;7.50;;;;;;;;;;5114142;28;20889;-67
2022/08/19 01:15:21;;;;;;;63.07;6.87;;;;;;;;;;5113754;28;20445;-67
2022/08/19 01:17:48;;;;;;;65.13;6.80;;;;;;;;;;5113800;28;20444;-67
2022/08/19 01:20:18;;;;;;;71.00;6.63;;;;;;;;;;5113369;28;20449;-67
2022/08/19 01:22:48;;;;;;;62.07;6.50;;;;;;;;;;5113347;28;20556;-67
2022/08/19 01:25:16;;;;;;;63.37;7.53;;;;;;;;;;5113631;28;20463;-67
2022/08/19 01:27:47;;;;;;;64.40;7.53;;;;;;;;;;5113548;28;20488;-67
2022/08/19 01:30:15;;;;;;;65.77;7.00;;;;;;;;;;5112991;28;20960;-67
2022/08/19 01:32:43;;;;;;;63.60;6.57;;;;;;;;;;5113210;28;20824;-67
2022/08/19 01:35:11;;;;;;;64.27;7.03;;;;;;;;;;5113482;28;20485;-67
2022/08/19 01:37:45;;;;;;;61.57;6.37;;;;;;;;;;5113336;28;20529;-67
2022/08/19 01:40:14;;;;;;;64.77;7.43;;;;;;;;;;5112806;28;20839;-67
2022/08/19 01:42:41;;;;;;;61.23;5.83;;;;;;;;;;5113159;28;20556;-68
2022/08/19 01:45:09;;;;;;;66.50;6.80;;;;;;;;;;5113124;28;20445;-67
2022/08/19 01:47:37;;;;;;;62.60;6.60;;;;;;;;;;5111471;28;20488;-67
2022/08/19 01:50:05;;;;;;;64.20;6.83;;;;;;;;;;5112616;28;20445;-67
2022/08/19 01:52:32;;;;;;;62.50;6.33;;;;;;;;;;5112852;28;20745;-67
2022/08/19 01:54:59;;;;;;;64.77;6.57;;;;;;;;;;5112677;28;20472;-67
2022/08/19 01:57:28;;;;;;;64.57;6.60;;;;;;;;;;5112996;28;20444;-67
2022/08/19 01:59:56;;;;;;;65.07;7.00;;;;;;;;;;5112672;28;20456;-67
2022/08/19 02:02:23;;;;;;;62.67;5.60;;;;;;;;;;5112768;28;20643;-68
2022/08/19 02:04:50;;;;;;;63.83;7.23;;;;;;;;;;5112758;28;20437;-67
2022/08/19 02:07:20;;;;;;;64.00;8.07;;;;;;;;;;5112530;28;20563;-67
2022/08/19 02:09:47;;;;;;;67.07;6.97;;;;;;;;;;5112401;28;20450;-68
2022/08/19 02:12:16;;;;;;;64.17;6.87;;;;;;;;;;5112672;28;20497;-66
2022/08/19 02:14:44;;;;;;;64.20;6.80;;;;;;;;;;5111782;28;20457;-67
2022/08/19 02:17:11;;;;;;;63.70;6.67;;;;;;;;;;5112957;28;20811;-67
2022/08/19 02:19:39;;;;;;;65.17;7.23;;;;;;;;;;5112010;28;20964;-67
2022/08/19 02:22:06;;;;;;;62.80;6.20;;;;;;;;;;5112490;28;20469;-67
2022/08/19 02:24:33;;;;;;;66.70;7.17;;;;;;;;;;5112764;28;20460;-67
2022/08/19 02:27:01;;;;;;;66.77;8.37;;;;;;;;;;5112382;28;20823;-67
2022/08/19 02:29:28;;;;;;;67.30;7.40;;;;;;;;;;5111869;28;20448;-67
2022/08/19 02:31:56;;;;;;;64.80;6.70;;;;;;;;;;5112492;28;20465;-66
2022/08/19 02:34:24;;;;;;;63.47;7.03;;;;;;;;;;5112293;28;20463;-66
2022/08/19 02:36:52;;;;;;;63.33;6.67;;;;;;;;;;5112539;28;20448;-67
2022/08/19 02:39:18;;;;;;;62.43;6.43;;;;;;;;;;5112294;28;20649;-67
2022/08/19 02:41:45;;;;;;;65.90;6.77;;;;;;;;;;5112313;28;20559;-66
2022/08/19 02:44:12;;;;;;;62.67;6.93;;;;;;;;;;5112282;28;20446;-66
2022/08/19 02:46:39;;;;;;;64.77;7.53;;;;;;;;;;5111974;28;20491;-65
2022/08/19 02:49:09;;;;;;;65.53;7.20;;;;;;;;;;5112089;28;20450;-67
2022/08/19 02:51:37;;;;;;;67.00;8.40;;;;;;;;;;5112244;28;20556;-66
2022/08/19 02:54:06;;;;;;;63.53;8.60;;;;;;;;;;5111991;28;20461;-67
2022/08/19 02:56:35;;;;;;;68.37;8.30;;;;;;;;;;5112198;28;20804;-67
2022/08/19 02:59:02;;;;;;;65.17;7.53;;;;;;;;;;5111660;28;20469;-67
2022/08/19 03:01:30;;;;;;;64.80;8.70;;;;;;;;;;5111933;28;20555;-67
2022/08/19 03:03:59;;;;;;;64.37;8.23;;;;;;;;;;5111998;28;20452;-67
2022/08/19 03:06:27;;;;;;;65.47;7.93;;;;;;;;;;5112100;28;20449;-67
2022/08/19 03:08:55;;;;;;;64.10;7.50;;;;;;;;;;5111781;28;20488;-67
2022/08/19 03:11:23;;;;;;;64.37;8.60;;;;;;;;;;5111873;28;20571;-67
2022/08/19 03:13:50;;;;;;;65.37;7.60;;;;;;;;;;5111674;28;20484;-66
2022/08/19 03:16:18;;;;;;;63.47;7.17;;;;;;;;;;5111938;28;20952;-67
2022/08/19 03:18:45;;;;;;;64.60;8.77;;;;;;;;;;5111584;28;20455;-67
2022/08/19 03:21:16;;;;;;;65.57;7.27;;;;;;;;;;5111862;28;20444;-66
2022/08/19 03:23:45;;;;;;;62.93;7.30;;;;;;;;;;5111937;28;20472;-67
2022/08/19 03:26:14;;;;;;;66.40;7.30;;;;;;;;;;5112762;28;20449;-67
2022/08/19 03:28:42;;;;;;;62.27;6.43;;;;;;;;;;5115168;28;21000;-67
2022/08/19 03:31:11;;;;;;;62.77;6.87;;;;;;;;;;5115660;28;20445;-67
2022/08/19 03:33:38;;;;;;;66.33;8.20;;;;;;;;;;5115608;28;20449;-67
2022/08/19 03:36:08;;;;;;;66.10;6.97;;;;;;;;;;5115572;28;20445;-67
2022/08/19 03:38:35;;;;;;;65.77;8.40;;;;;;;;;;5114979;28;20445;-67
2022/08/19 03:41:08;;;;;;;65.27;7.87;;;;;;;;;;5115154;28;20448;-67
2022/08/19 03:43:36;;;;;;;66.33;8.97;;;;;;;;;;5115864;28;20582;-67
2022/08/19 03:46:04;;;;;;;64.67;7.97;;;;;;;;;;5115486;28;20441;-67
2022/08/19 03:48:31;;;;;;;65.50;8.00;;;;;;;;;;5115128;28;20582;-67
2022/08/19 03:50:59;;;;;;;62.57;7.13;;;;;;;;;;5115207;28;20816;-67
2022/08/19 03:53:27;;;;;;;66.23;7.73;;;;;;;;;;5114998;28;20999;-68
2022/08/19 03:55:54;;;;;;;64.00;7.30;;;;;;;;;;5115267;28;20442;-67
2022/08/19 03:58:23;;;;;;;64.73;8.17;;;;;;;;;;5115162;28;20448;-67
2022/08/19 04:00:50;;;;;;;68.07;9.30;;;;;;;;;;5114741;28;20446;-67
2022/08/19 04:03:18;;;;;;;64.53;7.93;;;;;;;;;;5114790;28;20977;-67
2022/08/19 04:05:46;;;;;;;66.20;7.90;;;;;;;;;;5114814;28;20446;-66
2022/08/19 04:08:18;;;;;;;72.57;8.57;;;;;;;;;;5114555;28;20502;-66
2022/08/19 04:10:45;;;;;;;65.63;8.57;;;;;;;;;;5114671;28;20442;-66
2022/08/19 04:13:13;;;;;;;65.93;8.70;;;;;;;;;;5114473;28;20465;-67
2022/08/19 04:15:42;;;;;;;65.27;8.40;;;;;;;;;;5114621;28;20446;-67
2022/08/19 04:18:10;;;;;;;65.40;7.60;;;;;;;;;;5114571;28;20548;-67
2022/08/19 04:20:41;;;;;;;66.00;7.53;;;;;;;;;;5114064;28;20488;-67
2022/08/19 04:23:09;;;;;;;66.90;8.13;;;;;;;;;;5114292;28;20468;-67
2022/08/19 04:25:37;;;;;;;64.20;7.47;;;;;;;;;;5114666;28;20819;-67
2022/08/19 04:28:04;;;;;;;70.27;8.50;;;;;;;;;;5114378;28;20482;-67
2022/08/19 04:30:31;;;;;;;66.63;7.63;;;;;;;;;;5114088;28;20971;-67
2022/08/19 04:33:00;;;;;;;64.90;8.33;;;;;;;;;;5114218;28;20470;-66
2022/08/19 04:35:27;;;;;;;69.80;8.60;;;;;;;;;;5114599;28;20498;-67
2022/08/19 04:37:54;;;;;;;66.30;9.00;;;;;;;;;;5113909;28;20705;-67
2022/08/19 04:43:06;;;;;;;66.50;7.80;;;;;;;;;;5114207;28;20440;-67
2022/08/19 04:45:33;;;;;;;64.20;7.80;;;;;;;;;;5113891;28;20449;-67
2022/08/19 04:48:02;;;;;;;69.13;9.40;;;;;;;;;;5113791;28;20477;-67
2022/08/19 04:50:29;;;;;;;67.37;8.93;;;;;;;;;;5113863;28;20481;-67
2022/08/19 04:52:56;;;;;;;65.50;8.23;;;;;;;;;;5113683;28;20839;-67
2022/08/19 04:55:25;;;;;;;67.10;9.47;;;;;;;;;;5113987;28;20517;-68
2022/08/19 04:57:52;;;;;;;70.47;9.33;;;;;;;;;;5113957;28;20449;-67
2022/08/19 05:00:19;;;;;;;67.30;9.40;;;;;;;;;;5113315;28;20916;-67
2022/08/19 05:02:46;;;;;;;66.60;8.50;;;;;;;;;;5113760;28;20839;-67
2022/08/19 05:05:15;;;;;;;65.90;7.90;;;;;;;;;;5113732;28;20441;-68
2022/08/19 05:07:42;;;;;;;68.57;10.87;;;;;;;;;;5113743;28;20488;-67
2022/08/19 05:10:09;;;;;;;65.47;9.17;;;;;;;;;;5113402;28;20819;-66
2022/08/19 05:12:37;;;;;;;71.40;10.10;;;;;;;;;;5113322;28;20461;-68
2022/08/19 05:15:09;;;;;;;69.30;9.67;;;;;;;;;;5113795;28;20453;-67
2022/08/19 05:17:36;;;;;;;67.93;9.67;;;;;;;;;;5113553;28;20808;-67
2022/08/19 05:22:50;;;;;;;66.50;9.60;;;;;;;;;;5113005;28;20440;-67
2022/08/19 05:25:19;;;;;;;68.33;10.03;;;;;;;;;;5113026;28;20448;-68
2022/08/19 05:27:46;;;;;;;64.90;8.10;;;;;;;;;;5113137;28;20477;-67
2022/08/19 05:30:13;;;;;;;64.80;7.83;;;;;;;;;;5112968;28;20477;-67
2022/08/19 05:32:41;;;;;;;64.37;8.77;;;;;;;;;;5113113;28;20984;-67
2022/08/19 05:35:09;;;;;;;69.63;8.20;;;;;;;;;;5113164;28;20445;-67
2022/08/19 05:37:36;;;;;;;67.13;8.87;;;;;;;;;;5112846;28;20964;-67
2022/08/19 05:40:05;;;;;;;73.03;9.70;;;;;;;;;;5112794;28;20448;-67
2022/08/19 05:42:32;;;;;;;65.97;9.10;;;;;;;;;;5113170;28;20548;-67
2022/08/19 05:44:59;;;;;;;67.03;8.27;;;;;;;;;;5112982;28;20936;-68
2022/08/19 05:47:27;;;;;;;67.43;9.03;;;;;;;;;;5112810;28;20452;-67
2022/08/19 05:49:54;;;;;;;67.63;7.97;;;;;;;;;;5111620;28;20448;-66
2022/08/19 05:52:21;;;;;;;67.13;9.57;;;;;;;;;;5112533;28;20476;-67
2022/08/19 05:54:50;;;;;;;66.43;8.87;;;;;;;;;;5112654;28;20484;-67
2022/08/19 05:57:19;;;;;;;67.20;9.57;;;;;;;;;;5112877;28;20506;-67
2022/08/19 05:59:51;;;;;;;67.60;9.13;;;;;;;;;;5112641;28;20828;-68
2022/08/19 06:02:18;;;;;;;65.50;7.63;;;;;;;;;;5112772;28;20473;-67
2022/08/19 06:04:45;;;;;;;66.60;9.40;;;;;;;;;;5112615;28;20446;-67
2022/08/19 06:07:12;;;;;;;68.50;8.70;;;;;;;;;;5112924;28;20540;-68
2022/08/19 06:09:39;;;;;;;66.60;9.80;;;;;;;;;;5112353;28;21005;-67
2022/08/19 06:12:07;;;;;;;67.90;9.67;;;;;;;;;;5112704;28;20461;-67
2022/08/19 06:14:36;;;;;;;66.57;9.50;;;;;;;;;;5112916;28;20451;-68
2022/08/19 06:17:04;;;;;;;65.00;8.03;;;;;;;;;;5112629;28;20456;-67
2022/08/19 06:19:31;;;;;;;66.07;8.77;;;;;;;;;;5112231;28;20560;-66
2022/08/19 06:21:59;;;;;;;63.97;8.10;;;;;;;;;;5112352;28;20466;-68
2022/08/19 06:24:27;;;;;;;69.63;9.83;;;;;;;;;;5112649;28;20446;-67
2022/08/19 06:26:55;;;;;;;70.10;9.10;;;;;;;;;;5112570;28;20452;-67
2022/08/19 06:29:24;;;;;;;66.23;10.40;;;;;;;;;;5112752;28;20509;-67
2022/08/19 06:31:55;;;;;;;70.10;10.30;;;;;;;;;;5112209;28;20472;-67
2022/08/19 06:34:22;;;;;;;65.07;8.77;;;;;;;;;;5112963;28;20902;-67
2022/08/19 06:36:50;;;;;;;65.50;9.30;;;;;;;;;;5112721;28;20445;-68
2022/08/19 06:39:19;;;;;;;67.93;10.50;;;;;;;;;;5112221;28;20539;-66
2022/08/19 06:41:49;;;;;;;65.77;9.40;;;;;;;;;;5112024;28;20466;-67
2022/08/19 06:44:16;;;;;;;68.23;8.70;;;;;;;;;;5112035;28;20448;-67
2022/08/19 06:46:44;;;;;;;64.20;9.03;;;;;;;;;;5112569;28;20441;-67
2022/08/19 06:49:13;;;;;;;70.17;10.03;;;;;;;;;;5112101;28;20512;-67
2022/08/19 06:51:41;;;;;;;68.63;8.80;;;;;;;;;;5112127;28;20863;-67
2022/08/19 06:54:08;;;;;;;74.60;11.07;;;;;;;;;;5112266;28;20465;-67
2022/08/19 06:56:35;;;;;;;66.60;8.90;;;;;;;;;;5112155;28;20793;-67
2022/08/19 06:59:03;;;;;;;65.37;8.30;;;;;;;;;;5112132;28;20456;-67
2022/08/19 07:01:30;;;;;;;65.77;9.10;;;;;;;;;;5113906;28;20548;-67
2022/08/19 07:03:57;;;;;;;68.40;9.27;;;;;;;;;;5116407;28;20448;-67
2022/08/19 07:06:26;;;;;;;66.57;10.67;;;;;;;;;;5116291;28;20444;-67
2022/08/19 07:08:53;;;;;;;66.27;9.00;;;;;;;;;;5116259;28;20509;-68
2022/08/19 07:11:20;;;;;;;66.20;8.53;;;;;;;;;;5116116;28;20829;-67
2022/08/19 07:13:48;;;;;;;67.80;9.53;;;;;;;;;;5116171;28;20537;-67
2022/08/19 07:16:17;;;;;;;67.70;10.23;;;;;;;;;;5116705;28;20446;-67
2022/08/19 07:18:45;;;;;;;64.73;8.40;;;;;;;;;;5116910;28;20477;-67
2022/08/19 07:21:13;;;;;;;66.47;8.77;;;;;;;;;;5116947;28;20501;-67
2022/08/19 07:23:41;;;;;;;67.63;9.80;;;;;;;;;;5116165;28;20453;-68
2022/08/19 07:26:09;;;;;;;65.70;8.70;;;;;;;;;;5116476;28;20437;-67
2022/08/19 07:28:38;;;;;;;67.50;10.30;;;;;;;;;;5116194;28;20587;-68
2022/08/19 07:31:06;;;;;;;68.60;8.53;;;;;;;;;;5116173;28;20454;-67
2022/08/19 07:33:36;;;;;;;71.80;11.80;;;;;;;;;;5116805;28;20446;-67
2022/08/19 07:36:03;;;;;;;73.23;11.50;;;;;;;;;;5117535;28;20509;-67
2022/08/19 07:38:31;;;;;;;67.43;9.70;;;;;;;;;;5116992;28;20441;-67
2022/08/19 07:41:00;;;;;;;67.07;8.53;;;;;;;;;;5116444;28;20536;-67
2022/08/19 07:43:27;;;;;;;65.57;9.70;;;;;;;;;;5117082;28;20452;-67
2022/08/19 07:45:56;;;;;;;66.87;9.83;;;;;;;;;;5116573;28;20449;-67
2022/08/19 07:48:25;;;;;;;67.53;9.13;;;;;;;;;;5116171;28;20473;-66
2022/08/19 07:50:52;;;;;;;65.67;8.60;;;;;;;;;;5115008;28;20457;-66
2022/08/19 07:53:20;;;;;;;66.50;8.60;;;;;;;;;;5116396;28;20548;-67
2022/08/19 07:55:47;;;;;;;67.10;10.47;;;;;;;;;;5116938;28;20446;-66
2022/08/19 07:58:17;;;;;;;66.67;8.93;;;;;;;;;;5117085;28;20441;-67
2022/08/19 08:00:44;;;;;;;65.00;8.43;;;;;;;;;;5117135;28;20454;-66
2022/08/19 08:03:11;;;;;;;68.20;9.33;;;;;;;;;;5116976;28;20464;-67
2022/08/19 08:11:07;;;;;;;65.87;8.80;;;;;;;;;;5117687;28;20451;-67
2022/08/19 08:13:36;;;;;;;65.60;8.20;;;;;;;;;;5116271;28;20840;-67
2022/08/19 08:16:04;;;;;;;64.20;7.50;;;;;;;;;;5117248;28;20472;-67
2022/08/19 08:18:31;;;;;;;65.33;8.57;;;;;;;;;;5117129;28;20442;-67
2022/08/19 08:20:58;;;;;;;67.10;10.73;;;;;;;;;;5117028;28;20464;-67
2022/08/19 08:23:26;;;;;;;65.30;7.87;;;;;;;;;;5117425;28;20541;-67
2022/08/19 08:25:54;;;;;;;65.37;7.23;;;;;;;;;;5117333;28;20521;-68
2022/08/19 08:28:22;;;;;;;64.77;8.43;;;;;;;;;;5116895;28;20433;-68
2022/08/19 08:30:52;;;;;;;65.40;8.00;;;;;;;;;;5116592;28;21074;-68
2022/08/19 08:33:21;;;;;;;67.67;8.83;;;;;;;;;;5116600;28;20469;-68
2022/08/19 08:35:48;;;;;;;65.70;8.10;;;;;;;;;;5116921;28;20461;-68
2022/08/19 08:38:17;;;;;;;64.53;8.00;;;;;;;;;;5117197;28;20456;-68
2022/08/19 08:40:48;;;;;;;64.50;7.83;;;;;;;;;;5116905;28;20452;-68
2022/08/19 08:43:22;;;;;;;65.93;7.20;;;;;;;;;;5117385;28;20564;-68
2022/08/19 08:45:53;;;;;;;66.70;9.13;;;;;;;;;;5117414;28;20940;-68
2022/08/19 08:48:22;;;;;;;65.27;8.50;;;;;;;;;;5116795;28;20525;-68
2022/08/19 08:50:52;;;;;;;66.10;8.60;;;;;;;;;;5117024;28;20528;-68
2022/08/19 08:53:21;;;;;;;64.10;7.97;;;;;;;;;;5116250;28;20488;-68
2022/08/19 08:55:48;;;;;;;66.83;9.30;;;;;;;;;;5115758;28;20442;-68
2022/08/19 08:58:19;;;;;;;71.37;7.73;;;;;;;;;;5116399;28;20945;-67
2022/08/19 09:00:47;;;;;;;66.60;8.97;;;;;;;;;;5116063;28;20804;-67
2022/08/19 09:03:19;;;;;;;67.00;8.87;;;;;;;;;;5115598;28;20471;-68
2022/08/19 09:05:53;;;;;;;64.10;7.30;;;;;;;;;;5115115;28;20528;-68
2022/08/19 09:08:39;;;;;;;68.87;10.60;;;;;;;;;;5115976;28;20442;-68
2022/08/19 09:11:09;;;;;;;68.00;9.80;;;;;;;;;;5115779;28;20444;-68
2022/08/19 09:13:41;;;;;;;64.20;6.90;;;;;;;;;;5115644;28;20445;-67
2022/08/19 09:16:09;;;;;;;65.87;8.47;;;;;;;;;;5115610;28;20438;-68
2022/08/19 09:18:45;;;;;;;66.40;9.50;;;;;;;;;;5115199;28;20820;-68
2022/08/19 09:21:13;;;;;;;67.00;8.70;;;;;;;;;;5115765;28;20448;-67
2022/08/19 09:23:40;;;;;;;63.23;7.73;;;;;;;;;;5114958;28;20441;-68
2022/08/19 09:26:09;;;;;;;64.80;8.00;;;;;;;;;;5115072;28;21023;-67
2022/08/19 09:28:36;;;;;;;67.97;8.50;;;;;;;;;;5114540;28;20446;-68
2022/08/19 09:31:04;;;;;;;66.87;10.00;;;;;;;;;;5113033;28;21052;-67
2022/08/19 09:33:31;;;;;;;67.20;8.87;;;;;;;;;;5112988;28;20453;-68
2022/08/19 09:36:09;;;;;;;64.80;8.93;;;;;;;;;;5113673;28;20445;-68
2022/08/19 09:38:36;;;;;;;64.43;7.37;;;;;;;;;;5114084;28;20449;-68
2022/08/19 09:41:05;;;;;;;63.73;8.40;;;;;;;;;;5114628;28;20452;-68
2022/08/19 09:43:33;;;;;;;65.57;9.37;;;;;;;;;;5114433;28;20492;-69
2022/08/19 09:46:00;;;;;;;64.40;8.57;;;;;;;;;;5113822;28;20801;-69
2022/08/19 09:48:27;;;;;;;68.27;11.20;;;;;;;;;;5113212;28;20446;-68
2022/08/19 09:50:54;;;;;;;67.50;9.07;;;;;;;;;;5114391;28;20496;-69
2022/08/19 09:53:23;;;;;;;64.60;8.60;;;;;;;;;;5114696;28;20553;-69
2022/08/19 09:55:50;;;;;;;65.57;9.43;;;;;;;;;;5115072;28;20469;-69
2022/08/19 09:58:18;;;;;;;64.97;8.00;;;;;;;;;;5114318;28;20445;-69
2022/08/19 10:00:45;;;;;;;66.00;9.03;;;;;;;;;;5114157;28;21005;-69
2022/08/19 10:03:12;;;;;;;65.17;8.70;;;;;;;;;;5115205;28;20470;-69
2022/08/19 10:05:49;;;;;;;66.20;9.50;;;;;;;;;;5114786;28;21009;-70
2022/08/19 10:08:16;;;;;;;70.07;11.67;;;;;;;;;;5114383;28;20445;-70
2022/08/19 10:10:45;;;;;;;65.67;9.30;;;;;;;;;;5114549;28;20481;-69
2022/08/19 10:13:13;;;;;;;65.00;8.30;;;;;;;;;;5115427;28;20591;-67
2022/08/19 10:15:40;;;;;;;72.17;9.53;;;;;;;;;;5115266;28;20456;-69
2022/08/19 10:18:08;;;;;;;68.53;10.10;;;;;;;;;;5114649;28;20453;-69
2022/08/19 10:20:36;;;;;;;67.27;9.97;;;;;;;;;;5113697;28;20446;-69
2022/08/19 10:23:03;;;;;;;67.63;10.53;;;;;;;;;;5114581;28;20469;-69
2022/08/19 10:25:31;;;;;;;67.77;10.00;;;;;;;;;;5114277;28;20464;-69
2022/08/19 10:28:00;;;;;;;64.97;8.63;;;;;;;;;;5115101;28;20549;-70
2022/08/19 10:30:27;;;;;;;69.83;9.47;;;;;;;;;;5114020;28;20495;-68
2022/08/19 10:32:54;;;;;;;67.57;8.83;;;;;;;;;;5114507;28;20525;-70
2022/08/19 10:35:21;;;;;;;68.37;9.00;;;;;;;;;;5113755;28;20442;-70
2022/08/19 10:37:49;;;;;;;69.47;9.10;;;;;;;;;;5117441;28;20532;-70
2022/08/19 10:40:16;;;;;;;70.30;9.70;;;;;;;;;;5117039;28;20537;-70
2022/08/19 10:42:44;;;;;;;75.30;11.30;;;;;;;;;;5117435;28;20461;-70
2022/08/19 10:45:13;;;;;;;63.93;8.80;;;;;;;;;;5117512;28;20475;-70
2022/08/19 10:47:40;;;;;;;67.90;8.43;;;;;;;;;;5117414;28;20452;-70
2022/08/19 10:52:52;;;;;;;68.30;9.80;;;;;;;;;;5117197;28;20862;-70
2022/08/19 10:58:06;;;;;;;67.43;10.30;;;;;;;;;;5116958;28;20499;-70
2022/08/19 11:00:34;;;;;;;63.43;8.20;;;;;;;;;;5116440;28;20541;-70
2022/08/19 11:03:01;;;;;;;67.30;9.73;;;;;;;;;;5116978;28;20470;-70
2022/08/19 11:05:28;;;;;;;67.20;9.40;;;;;;;;;;5117173;28;20441;-70
2022/08/19 11:07:55;;;;;;;67.10;9.80;;;;;;;;;;5118234;28;20832;-70
2022/08/19 11:10:23;;;;;;;69.63;10.03;;;;;;;;;;5117745;28;20473;-70
2022/08/19 11:12:52;;;;;;;65.80;8.53;;;;;;;;;;5118142;28;20537;-69
2022/08/19 11:15:20;;;;;;;72.37;10.83;;;;;;;;;;5117889;28;20968;-70
2022/08/19 11:17:48;;;;;;;71.17;12.00;;;;;;;;;;5117706;28;20483;-70
2022/08/19 11:20:16;;;;;;;71.70;10.60;;;;;;;;;;5116995;28;20448;-70
2022/08/19 11:22:43;;;;;;;69.50;10.40;;;;;;;;;;5117188;28;20548;-70
2022/08/19 11:25:11;;;;;;;73.83;11.97;;;;;;;;;;5117153;28;20449;-69
2022/08/19 11:27:41;;;;;;;72.27;11.20;;;;;;;;;;5116962;28;20475;-70
2022/08/19 11:30:09;;;;;;;68.47;11.27;;;;;;;;;;5116625;28;20927;-70
2022/08/19 11:32:36;;;;;;;68.63;11.07;;;;;;;;;;5116595;28;20556;-70
2022/08/19 11:35:05;;;;;;;71.10;11.60;;;;;;;;;;5116886;28;20446;-70
2022/08/19 11:37:38;;;;;;;71.10;11.57;;;;;;;;;;5117409;28;21002;-70
2022/08/19 11:40:06;;;;;;;67.80;10.80;;;;;;;;;;5117239;28;20452;-70
2022/08/19 11:45:17;;;;;;;70.67;11.20;;;;;;;;;;5117368;28;20445;-69
2022/08/19 11:47:46;;;;;;;68.50;10.47;;;;;;;;;;5117310;28;20731;-70
2022/08/19 11:50:14;;;;;;;70.63;11.37;;;;;;;;;;5116108;28;20477;-69
2022/08/19 11:52:42;;;;;;;72.50;11.47;;;;;;;;;;5115633;28;20838;-70
2022/08/19 11:55:10;;;;;;;65.47;9.00;;;;;;;;;;5116174;28;20456;-69
2022/08/19 11:57:37;;;;;;;75.20;10.37;;;;;;;;;;5115853;28;21016;-69
2022/08/19 12:00:06;;;;;;;68.00;11.03;;;;;;;;;;5115650;28;20528;-69
2022/08/19 12:02:34;;;;;;;68.50;9.80;;;;;;;;;;5115862;28;20466;-69
2022/08/19 12:05:02;;;;;;;73.00;9.70;;;;;;;;;;5115711;28;20446;-69
2022/08/19 12:07:32;;;;;;;71.30;10.30;;;;;;;;;;5115672;28;20464;-69
2022/08/19 12:10:00;;;;;;;65.70;10.27;;;;;;;;;;5116000;28;20988;-69
2022/08/19 12:12:27;;;;;;;68.50;9.93;;;;;;;;;;5116886;28;20473;-69
2022/08/19 12:14:57;;;;;;;69.90;10.50;;;;;;;;;;5116727;28;20458;-69
2022/08/19 12:17:25;;;;;;;68.80;11.50;;;;;;;;;;5117397;28;20548;-69
2022/08/19 12:19:52;;;;;;;68.57;11.07;;;;;;;;;;5116805;28;20430;-68
2022/08/19 12:22:20;;;;;;;65.83;8.87;;;;;;;;;;5117293;28;20541;-69
2022/08/19 12:24:50;;;;;;;66.10;9.23;;;;;;;;;;5117518;28;20446;-69
2022/08/19 12:27:17;;;;;;;67.37;8.77;;;;;;;;;;5117170;28;20446;-69
2022/08/19 12:29:44;;;;;;;67.60;9.57;;;;;;;;;;5116346;28;20454;-69
2022/08/19 12:32:11;;;;;;;69.13;9.47;;;;;;;;;;5116555;28;20462;-69
2022/08/19 12:34:38;;;;;;;70.77;10.80;;;;;;;;;;5116641;28;20452;-68
2022/08/19 12:37:07;;;;;;;69.07;9.30;;;;;;;;;;5116612;28;20448;-68
2022/08/19 12:39:35;;;;;;;67.97;11.50;;;;;;;;;;5115713;28;20454;-67
2022/08/19 12:42:04;;;;;;;66.00;9.67;;;;;;;;;;5116039;28;20553;-67
2022/08/19 12:44:32;;;;;;;69.80;12.10;;;;;;;;;;5116427;28;20516;-69
2022/08/19 12:46:59;;;;;;;66.27;7.97;;;;;;;;;;5116228;28;21014;-68
2022/08/19 12:49:28;;;;;;;66.57;9.43;;;;;;;;;;5116142;28;20882;-68
2022/08/19 12:51:55;;;;;;;64.93;7.90;;;;;;;;;;5115270;28;20521;-68
2022/08/19 12:54:23;;;;;;;66.73;9.10;;;;;;;;;;5116212;28;20521;-68
2022/08/19 12:56:50;;;;;;;65.50;10.20;;;;;;;;;;5116638;28;20885;-69
2022/08/19 12:59:18;;;;;;;68.77;9.57;;;;;;;;;;5114381;28;20442;-69
2022/08/19 13:01:46;;;;;;;68.60;9.70;;;;;;;;;;5114858;28;20492;-70
2022/08/19 13:04:13;;;;;;;68.47;11.00;;;;;;;;;;5115971;28;20451;-69
2022/08/19 13:06:41;;;;;;;66.73;12.20;;;;;;;;;;5116064;28;20946;-71
2022/08/19 13:09:09;;;;;;;66.47;9.50;;;;;;;;;;5115399;28;20841;-69
2022/08/19 13:11:36;;;;;;;64.83;9.17;;;;;;;;;;5114713;28;20853;-71
2022/08/19 13:14:04;;;;;;;68.57;9.93;;;;;;;;;;5114458;28;20829;-71
2022/08/19 13:16:33;;;;;;;66.13;8.23;;;;;;;;;;5114948;28;21008;-70
2022/08/19 13:19:02;;;;;;;67.40;9.97;;;;;;;;;;5114654;28;20545;-70
2022/08/19 13:21:30;;;;;;;67.73;10.93;;;;;;;;;;5113723;28;20997;-71
2022/08/19 13:23:57;;;;;;;65.40;8.50;;;;;;;;;;5114462;28;21041;-69
2022/08/19 13:26:25;;;;;;;69.47;10.13;;;;;;;;;;5114975;28;20452;-70
2022/08/19 13:34:28;;;;;;;68.53;11.03;;;;;;;;;;5113666;28;20424;-70
2022/08/19 13:36:55;;;;;;;73.20;11.70;;;;;;;;;;5113681;28;20445;-70
2022/08/19 13:39:23;;;;;;;67.00;10.73;;;;;;;;;;5113493;28;20536;-70
2022/08/19 13:41:51;;;;;;;69.60;9.90;;;;;;;;;;5114405;28;20462;-70
2022/08/19 13:44:19;;;;;;;69.17;11.00;;;;;;;;;;5114575;28;20452;-69
2022/08/19 13:46:48;;;;;;;68.83;10.70;;;;;;;;;;5116211;28;20441;-69
2022/08/19 13:49:16;;;;;;;71.33;11.80;;;;;;;;;;5116201;28;20450;-70
2022/08/19 13:51:43;;;;;;;66.50;9.87;;;;;;;;;;5116943;28;20496;-70
2022/08/19 13:54:11;;;;;;;70.23;11.73;;;;;;;;;;5117469;28;20458;-70
2022/08/19 13:56:41;;;;;;;66.80;10.40;;;;;;;;;;5116575;28;20453;-70
2022/08/19 13:59:08;;;;;;;69.30;11.60;;;;;;;;;;5116266;28;20449;-69
2022/08/19 14:01:35;;;;;;;70.70;12.67;;;;;;;;;;5115652;28;20552;-69
2022/08/19 14:04:05;;;;;;;66.07;9.37;;;;;;;;;;5115722;28;20449;-69
2022/08/19 14:06:32;;;;;;;70.67;9.83;;;;;;;;;;5115865;28;20445;-69
2022/08/19 14:09:01;;;;;;;66.50;9.53;;;;;;;;;;5114684;28;20519;-69
2022/08/19 14:11:28;;;;;;;69.07;11.30;;;;;;;;;;5113376;28;20481;-69
2022/08/19 14:13:56;;;;;;;68.80;11.60;;;;;;;;;;5114428;28;20869;-69
2022/08/19 14:16:23;;;;;;;69.07;11.13;;;;;;;;;;5115584;28;20504;-70
2022/08/19 14:18:51;;;;;;;69.47;10.80;;;;;;;;;;5116208;28;20453;-70
2022/08/19 14:21:24;;;;;;;66.20;9.70;;;;;;;;;;5116245;28;20977;-70
2022/08/19 14:23:52;;;;;;;68.13;10.17;;;;;;;;;;5116625;28;20810;-70
2022/08/19 14:26:20;;;;;;;70.63;10.80;;;;;;;;;;5116929;28;20441;-70
2022/08/19 14:28:47;;;;;;;67.63;10.93;;;;;;;;;;5116744;28;20445;-70
2022/08/19 14:31:18;;;;;;;67.20;9.57;;;;;;;;;;5116190;28;20485;-68
2022/08/19 14:33:45;;;;;;;70.70;11.97;;;;;;;;;;5115518;28;20585;-69
2022/08/19 14:36:12;;;;;;;67.10;10.13;;;;;;;;;;5114300;28;20448;-69
2022/08/19 14:38:41;;;;;;;67.53;10.40;;;;;;;;;;5113919;28;20441;-69
2022/08/19 14:41:09;;;;;;;68.83;10.20;;;;;;;;;;5113295;28;20528;-69
2022/08/19 14:43:38;;;;;;;70.30;11.80;;;;;;;;;;5113335;28;20441;-69
2022/08/19 14:46:05;;;;;;;68.87;11.13;;;;;;;;;;5113058;28;20489;-69
2022/08/19 14:48:32;;;;;;;67.10;9.40;;;;;;;;;;5112793;28;20548;-69
2022/08/19 14:50:59;;;;;;;70.77;11.37;;;;;;;;;;5112346;28;20851;-69
2022/08/19 14:53:26;;;;;;;68.20;9.90;;;;;;;;;;5112584;28;20496;-69
2022/08/19 14:55:55;;;;;;;68.67;10.83;;;;;;;;;;5112068;28;20441;-69